createdAt,value
2019-02-21T00:00:26.984Z,10.51
2019-02-21T00:00:53.093Z,10.44
2019-02-21T00:01:19.202Z,10.56
2019-02-21T00:01:45.300Z,10.51
2019-02-21T00:02:11.401Z,10.46
2019-02-21T00:02:37.587Z,10.46
2019-02-21T00:03:03.651Z,10.48
2019-02-21T00:03:29.798Z,10.53
2019-02-21T00:03:55.927Z,10.53
2019-02-21T00:04:22.038Z,10.48
2019-02-21T00:04:48.136Z,10.41
2019-02-21T00:05:14.243Z,10.51
2019-02-21T00:05:40.349Z,10.57
2019-02-21T00:06:06.484Z,10.4
2019-02-21T00:06:32.590Z,10.41
2019-02-21T00:06:58.729Z,10.41
2019-02-21T00:07:24.831Z,10.42
2019-02-21T00:07:50.945Z,10.49
2019-02-21T00:08:17.079Z,10.46
2019-02-21T00:08:43.216Z,10.54
2019-02-21T00:09:09.357Z,10.42
2019-02-21T00:09:35.453Z,10.54
2019-02-21T00:10:01.602Z,10.53
2019-02-21T00:10:27.723Z,10.44
2019-02-21T00:10:53.871Z,10.38
2019-02-21T00:11:19.978Z,10.57
2019-02-21T00:11:46.141Z,10.46
2019-02-21T00:12:12.292Z,10.41
2019-02-21T00:12:38.357Z,10.4
2019-02-21T00:13:04.462Z,10.48
2019-02-21T00:13:30.601Z,10.42
2019-02-21T00:13:56.732Z,10.42
2019-02-21T00:14:22.831Z,10.3
2019-02-21T00:14:48.937Z,10.28
2019-02-21T00:15:15.064Z,10.3
2019-02-21T00:15:41.192Z,10.41
2019-02-21T00:16:07.299Z,10.33
2019-02-21T00:16:33.438Z,10.35
2019-02-21T00:16:59.571Z,10.25
2019-02-21T00:17:25.691Z,10.25
2019-02-21T00:17:51.844Z,10.19
2019-02-21T00:18:18.071Z,10.31
2019-02-21T00:18:44.175Z,10.3
2019-02-21T00:19:10.279Z,10.3
2019-02-21T00:19:36.448Z,10.3
2019-02-21T00:20:02.558Z,10.19
2019-02-21T00:20:28.661Z,10.22
2019-02-21T00:20:54.772Z,10.17
2019-02-21T00:21:20.901Z,10.16
2019-02-21T00:21:47.007Z,10.23
2019-02-21T00:22:13.151Z,10.22
2019-02-21T00:22:39.256Z,10.19
2019-02-21T00:23:05.365Z,10.17
2019-02-21T00:23:31.500Z,10.15
2019-02-21T00:23:57.607Z,10.13
2019-02-21T00:24:23.736Z,10.16
2019-02-21T00:24:49.876Z,10.13
2019-02-21T00:25:16.026Z,10.07
2019-02-21T00:25:42.129Z,9.99
2019-02-21T00:26:08.254Z,10.13
2019-02-21T00:26:34.371Z,10.01
2019-02-21T00:27:00.504Z,10.05
2019-02-21T00:27:26.611Z,10.09
2019-02-21T00:27:52.746Z,10.12
2019-02-21T00:28:18.848Z,10.07
2019-02-21T00:28:44.958Z,10.1
2019-02-21T00:29:11.125Z,9.98
2019-02-21T00:29:37.234Z,9.99
2019-02-21T00:30:03.443Z,10.01
2019-02-21T00:30:35.033Z,9.97
2019-02-21T00:30:56.727Z,9.97
2019-02-21T00:31:22.857Z,10.02
2019-02-21T00:31:48.985Z,10.07
2019-02-21T00:32:15.114Z,10.02
2019-02-21T00:32:41.241Z,9.97
2019-02-21T00:33:07.346Z,10.02
2019-02-21T00:33:33.483Z,10.07
2019-02-21T00:33:59.623Z,10.04
2019-02-21T00:34:25.769Z,9.99
2019-02-21T00:34:51.862Z,10.02
2019-02-21T00:35:17.992Z,9.98
2019-02-21T00:35:44.127Z,9.95
2019-02-21T00:36:10.231Z,9.99
2019-02-21T00:36:36.338Z,9.95
2019-02-21T00:37:02.457Z,9.95
2019-02-21T00:37:28.553Z,10.01
2019-02-21T00:37:54.652Z,9.98
2019-02-21T00:38:20.789Z,9.98
2019-02-21T00:38:46.892Z,9.92
2019-02-21T00:39:12.999Z,10.02
2019-02-21T00:39:39.107Z,10.02
2019-02-21T00:40:05.242Z,9.99
2019-02-21T00:40:31.431Z,9.98
2019-02-21T00:40:57.534Z,9.92
2019-02-21T00:41:23.638Z,9.95
2019-02-21T00:41:49.770Z,9.95
2019-02-21T00:42:15.872Z,9.97
2019-02-21T00:42:41.978Z,9.94
2019-02-21T00:43:08.083Z,9.95
2019-02-21T00:43:34.189Z,9.98
2019-02-21T00:44:00.293Z,9.98
2019-02-21T00:44:26.400Z,9.95
2019-02-21T00:44:52.511Z,9.99
2019-02-21T00:45:18.616Z,9.95
2019-02-21T00:45:44.714Z,9.97
2019-02-21T00:46:10.858Z,9.95
2019-02-21T00:46:36.966Z,9.95
2019-02-21T00:47:03.068Z,9.95
2019-02-21T00:47:29.171Z,9.95
2019-02-21T00:47:55.312Z,9.89
2019-02-21T00:48:21.425Z,9.91
2019-02-21T00:48:47.555Z,9.83
2019-02-21T00:49:13.698Z,9.95
2019-02-21T00:49:39.772Z,9.95
2019-02-21T00:50:05.880Z,9.84
2019-02-21T00:50:32.016Z,9.86
2019-02-21T00:50:58.121Z,9.92
2019-02-21T00:51:24.253Z,9.86
2019-02-21T00:51:50.359Z,9.86
2019-02-21T00:52:17.455Z,9.82
2019-02-21T00:52:43.588Z,9.82
2019-02-21T00:53:09.697Z,9.87
2019-02-21T00:53:35.806Z,9.73
2019-02-21T00:54:01.935Z,9.8
2019-02-21T00:54:28.039Z,9.83
2019-02-21T00:54:54.150Z,9.79
2019-02-21T00:55:20.257Z,9.74
2019-02-21T00:55:47.355Z,9.73
2019-02-21T00:56:13.463Z,9.82
2019-02-21T00:56:39.563Z,9.77
2019-02-21T00:57:05.677Z,9.74
2019-02-21T00:57:31.808Z,9.69
2019-02-21T00:57:57.914Z,9.68
2019-02-21T00:58:24.075Z,9.74
2019-02-21T00:58:50.176Z,9.62
2019-02-21T00:59:16.315Z,9.65
2019-02-21T00:59:42.414Z,9.65
2019-02-21T01:00:08.526Z,9.64
2019-02-21T01:00:43.672Z,9.62
2019-02-21T01:01:02.756Z,9.62
2019-02-21T01:01:28.847Z,9.64
2019-02-21T01:01:55.035Z,9.62
2019-02-21T01:02:21.147Z,9.66
2019-02-21T01:02:47.305Z,9.62
2019-02-21T01:03:13.409Z,9.65
2019-02-21T01:03:39.520Z,9.62
2019-02-21T01:04:05.628Z,9.62
2019-02-21T01:04:31.763Z,9.61
2019-02-21T01:04:57.871Z,9.64
2019-02-21T01:05:23.968Z,9.55
2019-02-21T01:05:50.069Z,9.58
2019-02-21T01:06:16.208Z,9.55
2019-02-21T01:06:42.319Z,9.62
2019-02-21T01:07:08.423Z,9.58
2019-02-21T01:07:34.539Z,9.64
2019-02-21T01:08:00.658Z,9.58
2019-02-21T01:08:26.771Z,9.55
2019-02-21T01:08:52.872Z,9.58
2019-02-21T01:09:18.971Z,9.55
2019-02-21T01:09:45.073Z,9.58
2019-02-21T01:10:11.186Z,9.58
2019-02-21T01:10:37.289Z,9.54
2019-02-21T01:11:03.401Z,9.58
2019-02-21T01:11:29.533Z,9.55
2019-02-21T01:11:55.639Z,9.54
2019-02-21T01:12:21.745Z,9.56
2019-02-21T01:12:47.883Z,9.59
2019-02-21T01:13:13.988Z,9.46
2019-02-21T01:13:40.094Z,9.44
2019-02-21T01:14:06.205Z,9.51
2019-02-21T01:14:32.310Z,9.5
2019-02-21T01:14:58.410Z,9.54
2019-02-21T01:15:24.610Z,9.48
2019-02-21T01:15:50.712Z,9.44
2019-02-21T01:16:16.892Z,9.48
2019-02-21T01:16:43.052Z,9.48
2019-02-21T01:17:09.212Z,9.51
2019-02-21T01:17:35.319Z,9.48
2019-02-21T01:18:01.478Z,9.47
2019-02-21T01:18:27.586Z,9.47
2019-02-21T01:18:53.688Z,9.46
2019-02-21T01:19:19.823Z,9.5
2019-02-21T01:19:45.929Z,9.44
2019-02-21T01:20:12.059Z,9.46
2019-02-21T01:20:38.169Z,9.4
2019-02-21T01:21:04.303Z,9.4
2019-02-21T01:21:30.439Z,9.39
2019-02-21T01:21:56.546Z,9.41
2019-02-21T01:22:22.649Z,9.41
2019-02-21T01:22:48.753Z,9.4
2019-02-21T01:23:14.859Z,9.32
2019-02-21T01:23:40.999Z,9.41
2019-02-21T01:24:08.113Z,9.46
2019-02-21T01:24:34.249Z,9.39
2019-02-21T01:25:00.441Z,9.41
2019-02-21T01:25:26.545Z,9.41
2019-02-21T01:25:52.657Z,9.4
2019-02-21T01:26:18.761Z,9.4
2019-02-21T01:26:44.871Z,9.43
2019-02-21T01:27:10.979Z,9.4
2019-02-21T01:27:37.091Z,9.41
2019-02-21T01:28:03.196Z,9.4
2019-02-21T01:28:29.308Z,9.4
2019-02-21T01:28:55.408Z,9.37
2019-02-21T01:29:21.524Z,9.41
2019-02-21T01:29:47.648Z,9.43
2019-02-21T01:30:13.764Z,9.37
2019-02-21T01:30:39.875Z,9.41
2019-02-21T01:31:07.747Z,9.4
2019-02-21T01:31:33.853Z,9.46
2019-02-21T01:31:59.955Z,9.4
2019-02-21T01:32:26.059Z,9.44
2019-02-21T01:32:52.156Z,9.44
2019-02-21T01:33:18.266Z,9.44
2019-02-21T01:33:44.370Z,9.43
2019-02-21T01:34:10.487Z,9.41
2019-02-21T01:34:36.584Z,9.41
2019-02-21T01:35:02.690Z,9.37
2019-02-21T01:35:28.795Z,9.4
2019-02-21T01:35:54.902Z,9.43
2019-02-21T01:36:21.016Z,9.44
2019-02-21T01:36:47.122Z,9.43
2019-02-21T01:37:13.249Z,9.4
2019-02-21T01:37:39.355Z,9.48
2019-02-21T01:38:05.461Z,9.4
2019-02-21T01:38:31.564Z,9.46
2019-02-21T01:38:57.698Z,9.4
2019-02-21T01:39:23.796Z,9.41
2019-02-21T01:39:49.929Z,9.46
2019-02-21T01:40:16.066Z,9.46
2019-02-21T01:40:42.179Z,9.47
2019-02-21T01:41:08.280Z,9.43
2019-02-21T01:41:34.383Z,9.47
2019-02-21T01:42:00.494Z,9.41
2019-02-21T01:42:26.600Z,9.5
2019-02-21T01:42:52.713Z,9.48
2019-02-21T01:43:18.821Z,9.47
2019-02-21T01:43:44.931Z,9.5
2019-02-21T01:44:11.041Z,9.54
2019-02-21T01:44:37.140Z,9.44
2019-02-21T01:45:03.244Z,9.46
2019-02-21T01:45:29.356Z,9.43
2019-02-21T01:45:55.514Z,9.43
2019-02-21T01:46:21.627Z,9.4
2019-02-21T01:46:47.761Z,9.44
2019-02-21T01:47:13.889Z,9.43
2019-02-21T01:47:39.989Z,9.48
2019-02-21T01:48:06.096Z,9.5
2019-02-21T01:48:33.195Z,9.5
2019-02-21T01:48:59.546Z,9.44
2019-02-21T01:49:25.668Z,9.46
2019-02-21T01:49:51.798Z,9.4
2019-02-21T01:50:17.901Z,9.41
2019-02-21T01:50:44.009Z,9.34
2019-02-21T01:51:10.166Z,9.44
2019-02-21T01:51:36.271Z,9.47
2019-02-21T01:52:02.366Z,9.46
2019-02-21T01:52:28.473Z,9.46
2019-02-21T01:52:54.606Z,9.46
2019-02-21T01:53:20.715Z,9.43
2019-02-21T01:53:46.842Z,9.32
2019-02-21T01:54:12.948Z,9.39
2019-02-21T01:54:39.060Z,9.43
2019-02-21T01:55:05.167Z,9.41
2019-02-21T01:55:31.276Z,9.43
2019-02-21T01:55:57.670Z,9.4
2019-02-21T01:56:23.800Z,9.41
2019-02-21T01:56:49.907Z,9.44
2019-02-21T01:57:16.048Z,9.44
2019-02-21T01:57:42.159Z,9.32
2019-02-21T01:58:08.261Z,9.4
2019-02-21T01:58:34.499Z,9.39
2019-02-21T01:59:00.554Z,9.32
2019-02-21T01:59:26.695Z,9.31
2019-02-21T01:59:52.795Z,9.29
2019-02-21T02:00:18.958Z,9.31
2019-02-21T02:00:45.071Z,9.19
2019-02-21T02:01:13.153Z,9.31
2019-02-21T02:01:39.285Z,9.34
2019-02-21T02:02:05.431Z,9.36
2019-02-21T02:02:31.585Z,9.31
2019-02-21T02:02:57.691Z,9.32
2019-02-21T02:03:23.827Z,9.32
2019-02-21T02:03:49.952Z,9.29
2019-02-21T02:04:16.106Z,9.34
2019-02-21T02:04:42.212Z,9.31
2019-02-21T02:05:08.370Z,9.43
2019-02-21T02:05:34.477Z,9.36
2019-02-21T02:06:00.583Z,9.34
2019-02-21T02:06:26.695Z,9.36
2019-02-21T02:06:52.853Z,9.32
2019-02-21T02:07:18.962Z,9.34
2019-02-21T02:07:45.090Z,9.32
2019-02-21T02:08:11.223Z,9.31
2019-02-21T02:08:37.354Z,9.34
2019-02-21T02:09:03.461Z,9.36
2019-02-21T02:09:29.590Z,9.34
2019-02-21T02:09:55.701Z,9.32
2019-02-21T02:10:21.816Z,9.32
2019-02-21T02:10:47.918Z,9.37
2019-02-21T02:11:14.024Z,9.32
2019-02-21T02:11:40.129Z,9.39
2019-02-21T02:12:06.261Z,9.36
2019-02-21T02:12:32.368Z,9.34
2019-02-21T02:12:58.502Z,9.34
2019-02-21T02:13:26.594Z,9.39
2019-02-21T02:13:52.701Z,9.41
2019-02-21T02:14:18.815Z,9.41
2019-02-21T02:14:44.937Z,9.43
2019-02-21T02:15:11.045Z,9.43
2019-02-21T02:15:37.187Z,9.46
2019-02-21T02:16:03.297Z,9.46
2019-02-21T02:16:29.395Z,9.44
2019-02-21T02:16:55.512Z,9.44
2019-02-21T02:17:21.614Z,9.41
2019-02-21T02:17:47.722Z,9.4
2019-02-21T02:18:13.856Z,9.39
2019-02-21T02:18:39.962Z,9.43
2019-02-21T02:19:06.065Z,9.46
2019-02-21T02:19:32.174Z,9.5
2019-02-21T02:19:58.281Z,9.41
2019-02-21T02:20:24.423Z,9.41
2019-02-21T02:20:50.526Z,9.41
2019-02-21T02:21:16.634Z,9.32
2019-02-21T02:21:42.771Z,9.39
2019-02-21T02:22:08.898Z,9.28
2019-02-21T02:22:35.000Z,9.32
2019-02-21T02:23:01.105Z,9.36
2019-02-21T02:23:27.233Z,9.29
2019-02-21T02:23:53.364Z,9.39
2019-02-21T02:24:19.498Z,9.31
2019-02-21T02:24:45.607Z,9.32
2019-02-21T02:25:11.743Z,9.31
2019-02-21T02:25:37.850Z,9.32
2019-02-21T02:26:03.949Z,9.37
2019-02-21T02:26:30.058Z,9.36
2019-02-21T02:26:56.166Z,9.34
2019-02-21T02:27:22.274Z,9.36
2019-02-21T02:27:48.378Z,9.36
2019-02-21T02:28:14.491Z,9.31
2019-02-21T02:28:40.598Z,9.31
2019-02-21T02:29:06.734Z,9.34
2019-02-21T02:29:32.825Z,9.32
2019-02-21T02:29:58.936Z,9.36
2019-02-21T02:30:25.074Z,9.28
2019-02-21T02:30:51.192Z,9.32
2019-02-21T02:31:22.417Z,9.43
2019-02-21T02:31:45.537Z,9.36
2019-02-21T02:32:12.661Z,9.41
2019-02-21T02:32:38.792Z,9.4
2019-02-21T02:33:04.902Z,9.4
2019-02-21T02:33:31.036Z,9.37
2019-02-21T02:33:57.170Z,9.41
2019-02-21T02:34:23.302Z,9.32
2019-02-21T02:34:49.433Z,9.37
2019-02-21T02:35:15.659Z,9.34
2019-02-21T02:35:41.758Z,9.4
2019-02-21T02:36:07.897Z,9.37
2019-02-21T02:36:34.020Z,9.4
2019-02-21T02:37:00.114Z,9.4
2019-02-21T02:37:26.223Z,9.41
2019-02-21T02:37:52.418Z,9.5
2019-02-21T02:38:18.552Z,9.47
2019-02-21T02:38:44.663Z,9.48
2019-02-21T02:39:10.804Z,9.47
2019-02-21T02:39:36.994Z,9.48
2019-02-21T02:40:03.142Z,9.43
2019-02-21T02:40:29.256Z,9.48
2019-02-21T02:40:55.360Z,9.44
2019-02-21T02:41:21.472Z,9.47
2019-02-21T02:41:47.589Z,9.43
2019-02-21T02:42:13.711Z,9.44
2019-02-21T02:42:39.817Z,9.4
2019-02-21T02:43:05.920Z,9.43
2019-02-21T02:43:32.069Z,9.4
2019-02-21T02:43:58.196Z,9.36
2019-02-21T02:44:24.311Z,9.39
2019-02-21T02:44:50.431Z,9.31
2019-02-21T02:45:16.564Z,9.4
2019-02-21T02:45:42.703Z,9.37
2019-02-21T02:46:08.835Z,9.39
2019-02-21T02:46:34.943Z,9.39
2019-02-21T02:47:01.073Z,9.34
2019-02-21T02:47:27.206Z,9.25
2019-02-21T02:47:53.328Z,9.32
2019-02-21T02:48:19.492Z,9.28
2019-02-21T02:48:45.656Z,9.29
2019-02-21T02:49:11.713Z,9.26
2019-02-21T02:49:37.864Z,9.28
2019-02-21T02:50:04.018Z,9.21
2019-02-21T02:50:30.129Z,9.23
2019-02-21T02:50:56.232Z,9.23
2019-02-21T02:51:22.339Z,9.26
2019-02-21T02:51:48.451Z,9.21
2019-02-21T02:52:14.632Z,9.23
2019-02-21T02:52:40.749Z,9.25
2019-02-21T02:53:06.852Z,9.26
2019-02-21T02:53:32.954Z,9.26
2019-02-21T02:53:59.062Z,9.26
2019-02-21T02:54:25.179Z,9.29
2019-02-21T02:54:51.340Z,9.28
2019-02-21T02:55:17.446Z,9.31
2019-02-21T02:55:43.559Z,9.25
2019-02-21T02:56:09.680Z,9.29
2019-02-21T02:56:35.788Z,9.23
2019-02-21T02:57:01.896Z,9.23
2019-02-21T02:57:27.999Z,9.25
2019-02-21T02:57:54.103Z,9.22
2019-02-21T02:58:21.202Z,9.23
2019-02-21T02:58:47.303Z,9.25
2019-02-21T02:59:13.447Z,9.22
2019-02-21T02:59:41.576Z,9.23
2019-02-21T03:00:07.700Z,9.22
2019-02-21T03:00:33.809Z,9.23
2019-02-21T03:00:59.929Z,9.21
2019-02-21T03:01:34.285Z,9.18
2019-02-21T03:01:54.225Z,9.19
2019-02-21T03:02:20.336Z,9.22
2019-02-21T03:02:46.589Z,9.23
2019-02-21T03:03:12.734Z,9.22
2019-02-21T03:03:38.873Z,9.22
2019-02-21T03:04:05.002Z,9.23
2019-02-21T03:04:31.172Z,9.21
2019-02-21T03:04:57.367Z,9.23
2019-02-21T03:05:23.467Z,9.23
2019-02-21T03:05:49.608Z,9.22
2019-02-21T03:06:15.740Z,9.19
2019-02-21T03:06:41.845Z,9.19
2019-02-21T03:07:07.975Z,9.16
2019-02-21T03:07:34.084Z,9.18
2019-02-21T03:08:00.221Z,9.22
2019-02-21T03:08:26.358Z,9.28
2019-02-21T03:08:52.482Z,9.29
2019-02-21T03:09:18.589Z,9.22
2019-02-21T03:09:44.696Z,9.22
2019-02-21T03:10:10.976Z,9.28
2019-02-21T03:10:37.088Z,9.21
2019-02-21T03:11:03.237Z,9.22
2019-02-21T03:11:29.313Z,9.25
2019-02-21T03:11:55.451Z,9.13
2019-02-21T03:12:21.586Z,9.19
2019-02-21T03:12:47.690Z,9.18
2019-02-21T03:13:13.811Z,9.23
2019-02-21T03:13:39.998Z,9.13
2019-02-21T03:14:06.162Z,9.19
2019-02-21T03:14:32.277Z,9.23
2019-02-21T03:14:58.401Z,9.22
2019-02-21T03:15:24.505Z,9.11
2019-02-21T03:15:50.650Z,9.13
2019-02-21T03:16:16.746Z,9.18
2019-02-21T03:16:42.853Z,9.21
2019-02-21T03:17:08.966Z,9.11
2019-02-21T03:17:35.060Z,9.21
2019-02-21T03:18:01.201Z,9.13
2019-02-21T03:18:27.311Z,9.11
2019-02-21T03:18:53.409Z,9.19
2019-02-21T03:19:19.512Z,9.18
2019-02-21T03:19:45.673Z,9.18
2019-02-21T03:20:11.839Z,9.13
2019-02-21T03:20:37.956Z,9.14
2019-02-21T03:21:04.109Z,9.08
2019-02-21T03:21:30.217Z,9.14
2019-02-21T03:21:56.359Z,9.13
2019-02-21T03:22:22.490Z,9.1
2019-02-21T03:22:48.589Z,9.13
2019-02-21T03:23:14.700Z,9.18
2019-02-21T03:23:40.806Z,9.11
2019-02-21T03:24:06.938Z,9.11
2019-02-21T03:24:33.063Z,9.04
2019-02-21T03:24:59.172Z,9.08
2019-02-21T03:25:25.297Z,9.04
2019-02-21T03:25:51.461Z,9
2019-02-21T03:26:17.569Z,9
2019-02-21T03:26:43.676Z,9.04
2019-02-21T03:27:09.787Z,8.95
2019-02-21T03:27:35.896Z,9.04
2019-02-21T03:28:01.998Z,9
2019-02-21T03:28:28.132Z,8.95
2019-02-21T03:28:54.312Z,8.95
2019-02-21T03:29:20.463Z,8.97
2019-02-21T03:29:46.569Z,9
2019-02-21T03:30:13.010Z,8.95
2019-02-21T03:30:39.208Z,8.94
2019-02-21T03:31:05.361Z,8.97
2019-02-21T03:31:31.593Z,8.88
2019-02-21T03:32:01.567Z,9
2019-02-21T03:32:27.696Z,9
2019-02-21T03:32:53.852Z,8.95
2019-02-21T03:33:19.962Z,8.97
2019-02-21T03:33:46.156Z,8.95
2019-02-21T03:34:12.293Z,8.94
2019-02-21T03:34:38.422Z,8.94
2019-02-21T03:35:04.573Z,8.91
2019-02-21T03:35:30.690Z,8.92
2019-02-21T03:35:56.821Z,8.99
2019-02-21T03:36:22.982Z,8.99
2019-02-21T03:36:49.146Z,8.88
2019-02-21T03:37:15.273Z,8.84
2019-02-21T03:37:41.407Z,8.87
2019-02-21T03:38:07.536Z,8.85
2019-02-21T03:38:35.234Z,8.88
2019-02-21T03:39:00.823Z,8.88
2019-02-21T03:39:26.940Z,8.95
2019-02-21T03:39:53.052Z,8.97
2019-02-21T03:40:19.155Z,8.85
2019-02-21T03:40:45.291Z,8.91
2019-02-21T03:41:11.453Z,8.94
2019-02-21T03:41:37.559Z,8.84
2019-02-21T03:42:03.661Z,8.85
2019-02-21T03:42:29.825Z,8.84
2019-02-21T03:42:55.956Z,8.85
2019-02-21T03:43:22.099Z,8.82
2019-02-21T03:43:48.201Z,8.78
2019-02-21T03:44:14.392Z,8.85
2019-02-21T03:44:40.526Z,8.79
2019-02-21T03:45:06.692Z,8.85
2019-02-21T03:45:32.802Z,8.85
2019-02-21T03:45:58.914Z,8.79
2019-02-21T03:46:25.022Z,8.79
2019-02-21T03:46:51.154Z,8.87
2019-02-21T03:47:17.317Z,8.76
2019-02-21T03:47:43.451Z,8.76
2019-02-21T03:48:09.632Z,8.81
2019-02-21T03:48:35.724Z,8.85
2019-02-21T03:49:01.845Z,8.81
2019-02-21T03:49:27.965Z,8.84
2019-02-21T03:49:54.183Z,8.74
2019-02-21T03:50:20.315Z,8.79
2019-02-21T03:50:46.428Z,8.71
2019-02-21T03:51:12.558Z,8.81
2019-02-21T03:51:38.692Z,8.74
2019-02-21T03:52:04.818Z,8.73
2019-02-21T03:52:30.942Z,8.71
2019-02-21T03:52:57.063Z,8.63
2019-02-21T03:53:23.155Z,8.7
2019-02-21T03:53:49.266Z,8.66
2019-02-21T03:54:15.373Z,8.71
2019-02-21T03:54:41.476Z,8.7
2019-02-21T03:55:07.653Z,8.66
2019-02-21T03:55:33.734Z,8.73
2019-02-21T03:55:59.835Z,8.71
2019-02-21T03:56:25.946Z,8.71
2019-02-21T03:56:52.053Z,8.69
2019-02-21T03:57:18.151Z,8.74
2019-02-21T03:57:44.280Z,8.76
2019-02-21T03:58:10.392Z,8.7
2019-02-21T03:58:36.496Z,8.66
2019-02-21T03:59:02.634Z,8.74
2019-02-21T03:59:28.794Z,8.73
2019-02-21T03:59:54.903Z,8.69
2019-02-21T04:00:21.072Z,8.76
2019-02-21T04:00:47.172Z,8.74
2019-02-21T04:01:13.310Z,8.76
2019-02-21T04:01:39.413Z,8.87
2019-02-21T04:02:07.530Z,8.78
2019-02-21T04:02:33.687Z,8.81
2019-02-21T04:02:59.796Z,8.85
2019-02-21T04:03:25.896Z,8.84
2019-02-21T04:03:52.000Z,8.85
2019-02-21T04:04:18.110Z,8.85
2019-02-21T04:04:44.244Z,8.87
2019-02-21T04:05:10.350Z,8.81
2019-02-21T04:05:36.457Z,8.92
2019-02-21T04:06:02.569Z,8.89
2019-02-21T04:06:28.688Z,8.99
2019-02-21T04:06:54.816Z,8.97
2019-02-21T04:07:21.890Z,8.94
2019-02-21T04:07:47.997Z,8.89
2019-02-21T04:08:14.163Z,8.91
2019-02-21T04:08:40.263Z,9.02
2019-02-21T04:09:06.395Z,8.99
2019-02-21T04:09:32.534Z,9.03
2019-02-21T04:09:58.669Z,9.06
2019-02-21T04:10:24.801Z,8.97
2019-02-21T04:10:50.899Z,8.99
2019-02-21T04:11:17.024Z,8.95
2019-02-21T04:11:43.152Z,8.99
2019-02-21T04:12:09.290Z,8.91
2019-02-21T04:12:35.489Z,8.95
2019-02-21T04:13:01.598Z,8.87
2019-02-21T04:13:28.688Z,8.82
2019-02-21T04:13:54.821Z,8.87
2019-02-21T04:14:21.227Z,8.85
2019-02-21T04:14:47.314Z,8.94
2019-02-21T04:15:13.421Z,8.85
2019-02-21T04:15:39.530Z,8.87
2019-02-21T04:16:05.659Z,8.82
2019-02-21T04:16:31.766Z,8.89
2019-02-21T04:16:57.876Z,8.85
2019-02-21T04:17:24.037Z,8.88
2019-02-21T04:17:50.206Z,8.84
2019-02-21T04:18:16.256Z,8.91
2019-02-21T04:18:42.369Z,8.89
2019-02-21T04:19:08.536Z,8.87
2019-02-21T04:19:34.634Z,8.84
2019-02-21T04:20:00.746Z,8.82
2019-02-21T04:20:26.920Z,8.84
2019-02-21T04:20:53.060Z,8.82
2019-02-21T04:21:19.163Z,8.82
2019-02-21T04:21:45.354Z,8.92
2019-02-21T04:22:11.492Z,8.91
2019-02-21T04:22:37.602Z,8.91
2019-02-21T04:23:03.743Z,8.84
2019-02-21T04:23:29.845Z,8.87
2019-02-21T04:23:56.008Z,8.87
2019-02-21T04:24:22.173Z,8.81
2019-02-21T04:24:48.275Z,8.85
2019-02-21T04:25:14.411Z,8.79
2019-02-21T04:25:40.542Z,8.88
2019-02-21T04:26:06.649Z,8.78
2019-02-21T04:26:32.758Z,8.7
2019-02-21T04:26:58.899Z,8.73
2019-02-21T04:27:25.014Z,8.79
2019-02-21T04:27:51.149Z,8.74
2019-02-21T04:28:17.259Z,8.73
2019-02-21T04:28:45.642Z,8.74
2019-02-21T04:29:10.466Z,8.74
2019-02-21T04:29:36.596Z,8.74
2019-02-21T04:30:02.704Z,8.69
2019-02-21T04:30:28.838Z,8.69
2019-02-21T04:30:54.962Z,8.71
2019-02-21T04:31:21.094Z,8.6
2019-02-21T04:31:47.254Z,8.6
2019-02-21T04:32:16.721Z,8.63
2019-02-21T04:32:41.494Z,8.63
2019-02-21T04:33:07.636Z,8.64
2019-02-21T04:33:34.466Z,8.64
2019-02-21T04:34:00.606Z,8.66
2019-02-21T04:34:26.762Z,8.66
2019-02-21T04:34:52.871Z,8.58
2019-02-21T04:35:19.008Z,8.55
2019-02-21T04:35:45.125Z,8.61
2019-02-21T04:36:11.280Z,8.42
2019-02-21T04:36:37.429Z,8.56
2019-02-21T04:37:03.547Z,8.49
2019-02-21T04:37:29.681Z,8.51
2019-02-21T04:37:55.813Z,8.42
2019-02-21T04:38:21.917Z,8.38
2019-02-21T04:38:48.049Z,8.45
2019-02-21T04:39:14.165Z,8.53
2019-02-21T04:39:40.260Z,8.61
2019-02-21T04:40:06.402Z,8.51
2019-02-21T04:40:32.493Z,8.56
2019-02-21T04:40:58.624Z,8.56
2019-02-21T04:41:24.731Z,8.56
2019-02-21T04:41:50.829Z,8.46
2019-02-21T04:42:16.933Z,8.55
2019-02-21T04:42:43.033Z,8.49
2019-02-21T04:43:09.162Z,8.45
2019-02-21T04:43:35.275Z,8.45
2019-02-21T04:44:03.775Z,8.48
2019-02-21T04:44:27.517Z,8.46
2019-02-21T04:44:53.644Z,8.37
2019-02-21T04:45:19.740Z,8.48
2019-02-21T04:45:45.869Z,8.52
2019-02-21T04:46:11.974Z,8.41
2019-02-21T04:46:38.107Z,8.38
2019-02-21T04:47:04.206Z,8.42
2019-02-21T04:47:30.317Z,8.45
2019-02-21T04:47:56.416Z,8.53
2019-02-21T04:48:22.550Z,8.37
2019-02-21T04:48:48.658Z,8.46
2019-02-21T04:49:14.787Z,8.46
2019-02-21T04:49:40.893Z,8.46
2019-02-21T04:50:07.000Z,8.44
2019-02-21T04:50:33.131Z,8.37
2019-02-21T04:50:59.799Z,8.45
2019-02-21T04:51:26.045Z,8.37
2019-02-21T04:51:52.145Z,8.41
2019-02-21T04:52:18.279Z,8.42
2019-02-21T04:52:44.440Z,8.44
2019-02-21T04:53:10.543Z,8.48
2019-02-21T04:53:36.699Z,8.45
2019-02-21T04:54:02.801Z,8.49
2019-02-21T04:54:28.932Z,8.41
2019-02-21T04:54:55.037Z,8.41
2019-02-21T04:55:21.173Z,8.41
2019-02-21T04:55:47.290Z,8.37
2019-02-21T04:56:13.395Z,8.44
2019-02-21T04:56:39.499Z,8.45
2019-02-21T04:57:05.597Z,8.48
2019-02-21T04:57:31.796Z,8.44
2019-02-21T04:57:57.898Z,8.48
2019-02-21T04:58:24.004Z,8.45
2019-02-21T04:58:50.115Z,8.46
2019-02-21T04:59:16.267Z,8.52
2019-02-21T04:59:42.406Z,8.42
2019-02-21T05:00:08.516Z,8.49
2019-02-21T05:00:34.622Z,8.42
2019-02-21T05:01:00.743Z,8.46
2019-02-21T05:01:26.920Z,8.38
2019-02-21T05:01:54.049Z,8.49
2019-02-21T05:02:28.390Z,8.41
2019-02-21T05:02:46.348Z,8.46
2019-02-21T05:03:12.447Z,8.45
2019-02-21T05:03:38.555Z,8.49
2019-02-21T05:04:05.017Z,8.41
2019-02-21T05:04:31.196Z,8.41
2019-02-21T05:04:57.322Z,8.45
2019-02-21T05:05:23.459Z,8.36
2019-02-21T05:05:49.593Z,8.44
2019-02-21T05:06:15.944Z,8.38
2019-02-21T05:06:42.112Z,8.38
2019-02-21T05:07:08.251Z,8.36
2019-02-21T05:07:34.362Z,8.36
2019-02-21T05:08:00.525Z,8.48
2019-02-21T05:08:26.628Z,8.48
2019-02-21T05:08:52.754Z,8.33
2019-02-21T05:09:18.859Z,8.45
2019-02-21T05:09:56.945Z,8.44
2019-02-21T05:10:13.130Z,8.33
2019-02-21T05:10:39.260Z,8.38
2019-02-21T05:11:05.377Z,8.38
2019-02-21T05:11:31.487Z,8.42
2019-02-21T05:11:57.610Z,8.38
2019-02-21T05:12:23.749Z,8.44
2019-02-21T05:12:49.921Z,8.41
2019-02-21T05:13:16.049Z,8.49
2019-02-21T05:13:42.180Z,8.45
2019-02-21T05:14:08.289Z,8.38
2019-02-21T05:14:34.404Z,8.42
2019-02-21T05:15:00.503Z,8.38
2019-02-21T05:15:27.643Z,8.42
2019-02-21T05:15:53.749Z,8.31
2019-02-21T05:16:19.860Z,8.33
2019-02-21T05:16:45.989Z,8.38
2019-02-21T05:17:12.099Z,8.36
2019-02-21T05:17:38.209Z,8.33
2019-02-21T05:18:04.347Z,8.33
2019-02-21T05:18:30.448Z,8.3
2019-02-21T05:18:56.573Z,8.3
2019-02-21T05:19:22.666Z,8.41
2019-02-21T05:19:48.775Z,8.36
2019-02-21T05:20:14.903Z,8.41
2019-02-21T05:20:41.040Z,8.38
2019-02-21T05:21:07.141Z,8.41
2019-02-21T05:21:33.260Z,8.42
2019-02-21T05:21:59.383Z,8.33
2019-02-21T05:22:25.494Z,8.33
2019-02-21T05:22:51.626Z,8.3
2019-02-21T05:23:17.723Z,8.28
2019-02-21T05:23:43.838Z,8.34
2019-02-21T05:24:09.963Z,8.28
2019-02-21T05:24:36.076Z,8.3
2019-02-21T05:25:02.177Z,8.31
2019-02-21T05:25:28.301Z,8.38
2019-02-21T05:25:54.439Z,8.36
2019-02-21T05:26:20.547Z,8.31
2019-02-21T05:26:46.689Z,8.36
2019-02-21T05:27:12.819Z,8.3
2019-02-21T05:27:38.922Z,8.34
2019-02-21T05:28:05.026Z,8.33
2019-02-21T05:28:31.197Z,8.28
2019-02-21T05:28:57.323Z,8.38
2019-02-21T05:29:23.461Z,8.31
2019-02-21T05:29:49.562Z,8.3
2019-02-21T05:30:15.673Z,8.38
2019-02-21T05:30:41.809Z,8.31
2019-02-21T05:31:07.909Z,8.28
2019-02-21T05:31:34.071Z,8.28
2019-02-21T05:32:00.172Z,8.31
2019-02-21T05:32:26.311Z,8.36
2019-02-21T05:32:54.443Z,8.33
2019-02-21T05:33:20.559Z,8.37
2019-02-21T05:33:46.686Z,8.31
2019-02-21T05:34:12.797Z,8.36
2019-02-21T05:34:38.926Z,8.38
2019-02-21T05:35:05.082Z,8.41
2019-02-21T05:35:31.486Z,8.33
2019-02-21T05:35:57.566Z,8.33
2019-02-21T05:36:23.661Z,8.33
2019-02-21T05:36:49.797Z,8.37
2019-02-21T05:37:15.937Z,8.45
2019-02-21T05:37:42.041Z,8.41
2019-02-21T05:38:08.140Z,8.42
2019-02-21T05:38:34.245Z,8.48
2019-02-21T05:39:00.353Z,8.38
2019-02-21T05:39:26.477Z,8.42
2019-02-21T05:39:52.589Z,8.42
2019-02-21T05:40:19.426Z,8.42
2019-02-21T05:40:46.575Z,8.52
2019-02-21T05:41:13.643Z,8.45
2019-02-21T05:41:39.772Z,8.34
2019-02-21T05:42:05.880Z,8.45
2019-02-21T05:42:31.986Z,8.38
2019-02-21T05:42:58.090Z,8.44
2019-02-21T05:43:24.224Z,8.42
2019-02-21T05:43:51.374Z,8.52
2019-02-21T05:44:17.483Z,8.49
2019-02-21T05:44:44.157Z,8.41
2019-02-21T05:45:11.157Z,8.37
2019-02-21T05:45:37.392Z,8.36
2019-02-21T05:46:03.498Z,8.36
2019-02-21T05:46:29.670Z,8.38
2019-02-21T05:46:55.778Z,8.33
2019-02-21T05:47:21.878Z,8.41
2019-02-21T05:47:47.982Z,8.34
2019-02-21T05:48:15.105Z,8.38
2019-02-21T05:48:41.239Z,8.44